sensor_id;sensor_type;location;lat;lon;timestamp;P1;durP1;ratioP1;P2;durP2;ratioP2
16286;SDS011;8251;53.568;10.018;2022-10-16T00:01:43;6.97;;;4.00;;
16286;SDS011;8251;53.568;10.018;2022-10-16T00:04:10;9.83;;;3.40;;
16286;SDS011;8251;53.568;10.018;2022-10-16T00:06:41;4.50;;;3.60;;
16286;SDS011;8251;53.568;10.018;2022-10-16T00:09:08;7.13;;;3.57;;
16286;SDS011;8251;53.568;10.018;2022-10-16T00:11:38;5.73;;;3.17;;
16286;SDS011;8251;53.568;10.018;2022-10-16T00:14:09;3.87;;;3.07;;
16286;SDS011;8251;53.568;10.018;2022-10-16T00:16:39;8.57;;;3.13;;
16286;SDS011;8251;53.568;10.018;2022-10-16T00:19:10;4.43;;;2.63;;
16286;SDS011;8251;53.568;10.018;2022-10-16T00:21:37;3.60;;;2.70;;
16286;SDS011;8251;53.568;10.018;2022-10-16T00:24:06;8.10;;;2.80;;
16286;SDS011;8251;53.568;10.018;2022-10-16T00:26:39;5.70;;;2.47;;
16286;SDS011;8251;53.568;10.018;2022-10-16T00:29:06;5.43;;;2.20;;
16286;SDS011;8251;53.568;10.018;2022-10-16T00:31:35;5.03;;;2.03;;
16286;SDS011;8251;53.568;10.018;2022-10-16T00:34:03;3.37;;;2.13;;
16286;SDS011;8251;53.568;10.018;2022-10-16T00:36:34;5.73;;;2.20;;
16286;SDS011;8251;53.568;10.018;2022-10-16T00:39:01;5.10;;;1.90;;
16286;SDS011;8251;53.568;10.018;2022-10-16T00:41:29;3.37;;;1.60;;
16286;SDS011;8251;53.568;10.018;2022-10-16T00:44:02;3.93;;;1.47;;
16286;SDS011;8251;53.568;10.018;2022-10-16T00:46:52;6.40;;;1.83;;
16286;SDS011;8251;53.568;10.018;2022-10-16T00:49:22;2.30;;;1.50;;
16286;SDS011;8251;53.568;10.018;2022-10-16T00:51:51;3.87;;;1.63;;
16286;SDS011;8251;53.568;10.018;2022-10-16T00:54:21;3.43;;;1.50;;
16286;SDS011;8251;53.568;10.018;2022-10-16T00:56:51;4.10;;;1.50;;
16286;SDS011;8251;53.568;10.018;2022-10-16T00:59:20;2.80;;;1.40;;
16286;SDS011;8251;53.568;10.018;2022-10-16T01:01:54;3.13;;;1.50;;
16286;SDS011;8251;53.568;10.018;2022-10-16T01:04:25;4.67;;;2.10;;
16286;SDS011;8251;53.568;10.018;2022-10-16T01:07:04;2.23;;;1.43;;
16286;SDS011;8251;53.568;10.018;2022-10-16T01:09:47;3.73;;;1.23;;
16286;SDS011;8251;53.568;10.018;2022-10-16T01:12:33;1.20;;;0.90;;
16286;SDS011;8251;53.568;10.018;2022-10-16T01:15:16;5.93;;;1.03;;
16286;SDS011;8251;53.568;10.018;2022-10-16T01:17:51;3.40;;;1.40;;
16286;SDS011;8251;53.568;10.018;2022-10-16T01:20:33;2.47;;;0.97;;
16286;SDS011;8251;53.568;10.018;2022-10-16T01:23:21;3.73;;;1.30;;
16286;SDS011;8251;53.568;10.018;2022-10-16T01:26:13;4.43;;;1.00;;
16286;SDS011;8251;53.568;10.018;2022-10-16T01:28:51;3.73;;;1.30;;
16286;SDS011;8251;53.568;10.018;2022-10-16T01:31:22;4.37;;;2.23;;
16286;SDS011;8251;53.568;10.018;2022-10-16T01:33:54;1.47;;;1.20;;
16286;SDS011;8251;53.568;10.018;2022-10-16T01:36:28;2.83;;;1.43;;
16286;SDS011;8251;53.568;10.018;2022-10-16T01:39:00;3.27;;;1.10;;
16286;SDS011;8251;53.568;10.018;2022-10-16T01:41:30;3.97;;;1.00;;
16286;SDS011;8251;53.568;10.018;2022-10-16T01:44:02;2.63;;;1.17;;
16286;SDS011;8251;53.568;10.018;2022-10-16T01:46:33;3.93;;;1.30;;
16286;SDS011;8251;53.568;10.018;2022-10-16T01:49:03;1.60;;;1.00;;
16286;SDS011;8251;53.568;10.018;2022-10-16T01:51:38;2.10;;;1.40;;
16286;SDS011;8251;53.568;10.018;2022-10-16T01:54:09;2.20;;;1.07;;
16286;SDS011;8251;53.568;10.018;2022-10-16T01:56:40;1.30;;;1.07;;
16286;SDS011;8251;53.568;10.018;2022-10-16T01:59:12;1.03;;;0.97;;
16286;SDS011;8251;53.568;10.018;2022-10-16T02:01:44;2.20;;;0.90;;
16286;SDS011;8251;53.568;10.018;2022-10-16T02:04:18;1.67;;;1.10;;
16286;SDS011;8251;53.568;10.018;2022-10-16T02:07:02;4.23;;;1.20;;
16286;SDS011;8251;53.568;10.018;2022-10-16T02:09:32;1.43;;;0.90;;
16286;SDS011;8251;53.568;10.018;2022-10-16T02:12:10;2.93;;;1.37;;
16286;SDS011;8251;53.568;10.018;2022-10-16T02:14:50;3.20;;;1.43;;
16286;SDS011;8251;53.568;10.018;2022-10-16T02:17:18;2.10;;;1.10;;
16286;SDS011;8251;53.568;10.018;2022-10-16T02:19:49;3.47;;;1.30;;
16286;SDS011;8251;53.568;10.018;2022-10-16T02:22:26;1.27;;;0.97;;
16286;SDS011;8251;53.568;10.018;2022-10-16T02:25:01;3.77;;;1.10;;
16286;SDS011;8251;53.568;10.018;2022-10-16T02:27:38;2.90;;;0.90;;
16286;SDS011;8251;53.568;10.018;2022-10-16T02:30:21;3.23;;;1.07;;
16286;SDS011;8251;53.568;10.018;2022-10-16T02:32:58;6.67;;;1.00;;
16286;SDS011;8251;53.568;10.018;2022-10-16T02:35:33;2.03;;;1.07;;
16286;SDS011;8251;53.568;10.018;2022-10-16T02:38:02;1.57;;;1.00;;
16286;SDS011;8251;53.568;10.018;2022-10-16T02:40:32;1.43;;;0.80;;
16286;SDS011;8251;53.568;10.018;2022-10-16T02:43:05;3.13;;;1.17;;
16286;SDS011;8251;53.568;10.018;2022-10-16T02:45:42;1.20;;;1.10;;
16286;SDS011;8251;53.568;10.018;2022-10-16T02:48:13;2.60;;;0.70;;
16286;SDS011;8251;53.568;10.018;2022-10-16T02:50:42;1.63;;;0.93;;
16286;SDS011;8251;53.568;10.018;2022-10-16T02:53:09;3.63;;;0.97;;
16286;SDS011;8251;53.568;10.018;2022-10-16T02:55:40;4.57;;;1.07;;
16286;SDS011;8251;53.568;10.018;2022-10-16T02:58:11;7.63;;;1.63;;
16286;SDS011;8251;53.568;10.018;2022-10-16T03:00:42;2.97;;;1.33;;
16286;SDS011;8251;53.568;10.018;2022-10-16T03:03:14;3.33;;;1.00;;
16286;SDS011;8251;53.568;10.018;2022-10-16T03:05:54;6.03;;;0.93;;
16286;SDS011;8251;53.568;10.018;2022-10-16T03:08:28;3.43;;;1.20;;
16286;SDS011;8251;53.568;10.018;2022-10-16T03:10:57;2.27;;;1.10;;
16286;SDS011;8251;53.568;10.018;2022-10-16T03:13:29;3.73;;;0.90;;
16286;SDS011;8251;53.568;10.018;2022-10-16T03:16:01;1.30;;;0.83;;
16286;SDS011;8251;53.568;10.018;2022-10-16T03:18:33;3.90;;;1.17;;
16286;SDS011;8251;53.568;10.018;2022-10-16T03:21:03;2.77;;;0.80;;
16286;SDS011;8251;53.568;10.018;2022-10-16T03:23:34;3.30;;;1.70;;
16286;SDS011;8251;53.568;10.018;2022-10-16T03:26:01;2.57;;;1.07;;
16286;SDS011;8251;53.568;10.018;2022-10-16T03:28:33;1.30;;;1.00;;
16286;SDS011;8251;53.568;10.018;2022-10-16T03:31:17;4.13;;;0.80;;
16286;SDS011;8251;53.568;10.018;2022-10-16T03:33:47;1.00;;;0.97;;
16286;SDS011;8251;53.568;10.018;2022-10-16T03:36:17;3.27;;;1.47;;
16286;SDS011;8251;53.568;10.018;2022-10-16T03:38:50;1.33;;;0.80;;
16286;SDS011;8251;53.568;10.018;2022-10-16T03:41:20;3.80;;;1.10;;
16286;SDS011;8251;53.568;10.018;2022-10-16T03:43:50;1.97;;;1.27;;
16286;SDS011;8251;53.568;10.018;2022-10-16T03:46:20;1.87;;;1.10;;
16286;SDS011;8251;53.568;10.018;2022-10-16T03:48:50;2.17;;;1.10;;
16286;SDS011;8251;53.568;10.018;2022-10-16T03:51:25;1.97;;;1.03;;
16286;SDS011;8251;53.568;10.018;2022-10-16T03:53:53;3.10;;;1.17;;
16286;SDS011;8251;53.568;10.018;2022-10-16T03:56:37;4.47;;;1.33;;
16286;SDS011;8251;53.568;10.018;2022-10-16T03:59:05;2.00;;;0.90;;
16286;SDS011;8251;53.568;10.018;2022-10-16T04:01:37;2.53;;;1.00;;
16286;SDS011;8251;53.568;10.018;2022-10-16T04:04:07;2.87;;;1.17;;
16286;SDS011;8251;53.568;10.018;2022-10-16T04:06:38;2.73;;;1.10;;
16286;SDS011;8251;53.568;10.018;2022-10-16T04:09:13;1.63;;;0.93;;
16286;SDS011;8251;53.568;10.018;2022-10-16T04:11:41;2.83;;;1.27;;
16286;SDS011;8251;53.568;10.018;2022-10-16T04:14:14;1.60;;;1.17;;
16286;SDS011;8251;53.568;10.018;2022-10-16T04:16:59;4.60;;;1.20;;
16286;SDS011;8251;53.568;10.018;2022-10-16T04:19:31;2.13;;;1.00;;
16286;SDS011;8251;53.568;10.018;2022-10-16T04:22:03;2.97;;;1.00;;
16286;SDS011;8251;53.568;10.018;2022-10-16T04:24:39;2.50;;;1.03;;
16286;SDS011;8251;53.568;10.018;2022-10-16T04:27:08;3.03;;;1.10;;
16286;SDS011;8251;53.568;10.018;2022-10-16T04:29:37;1.67;;;1.00;;
16286;SDS011;8251;53.568;10.018;2022-10-16T04:32:09;1.63;;;1.00;;
16286;SDS011;8251;53.568;10.018;2022-10-16T04:34:41;1.10;;;0.73;;
16286;SDS011;8251;53.568;10.018;2022-10-16T04:37:11;4.30;;;1.00;;
16286;SDS011;8251;53.568;10.018;2022-10-16T04:39:41;3.50;;;1.07;;
16286;SDS011;8251;53.568;10.018;2022-10-16T04:42:10;1.77;;;1.10;;
16286;SDS011;8251;53.568;10.018;2022-10-16T04:44:38;3.17;;;0.93;;
16286;SDS011;8251;53.568;10.018;2022-10-16T04:47:14;2.83;;;1.13;;
16286;SDS011;8251;53.568;10.018;2022-10-16T04:49:43;4.13;;;0.80;;
16286;SDS011;8251;53.568;10.018;2022-10-16T04:52:15;2.27;;;1.13;;
16286;SDS011;8251;53.568;10.018;2022-10-16T04:54:48;1.20;;;1.00;;
16286;SDS011;8251;53.568;10.018;2022-10-16T04:57:17;2.10;;;1.07;;
16286;SDS011;8251;53.568;10.018;2022-10-16T04:59:44;4.20;;;1.00;;
16286;SDS011;8251;53.568;10.018;2022-10-16T05:02:23;2.27;;;1.37;;
16286;SDS011;8251;53.568;10.018;2022-10-16T05:04:55;1.93;;;1.00;;
16286;SDS011;8251;53.568;10.018;2022-10-16T05:07:26;1.77;;;0.80;;
16286;SDS011;8251;53.568;10.018;2022-10-16T05:09:55;2.80;;;1.30;;
16286;SDS011;8251;53.568;10.018;2022-10-16T05:12:26;2.53;;;1.40;;
16286;SDS011;8251;53.568;10.018;2022-10-16T05:14:55;3.03;;;1.20;;
16286;SDS011;8251;53.568;10.018;2022-10-16T05:17:27;1.50;;;1.27;;
16286;SDS011;8251;53.568;10.018;2022-10-16T05:20:00;3.53;;;1.50;;
16286;SDS011;8251;53.568;10.018;2022-10-16T05:22:29;3.20;;;1.40;;
16286;SDS011;8251;53.568;10.018;2022-10-16T05:24:58;3.73;;;1.50;;
16286;SDS011;8251;53.568;10.018;2022-10-16T05:27:33;2.93;;;1.27;;
16286;SDS011;8251;53.568;10.018;2022-10-16T05:30:03;2.33;;;1.23;;
16286;SDS011;8251;53.568;10.018;2022-10-16T05:32:47;3.53;;;1.40;;
16286;SDS011;8251;53.568;10.018;2022-10-16T05:35:19;3.63;;;1.37;;
16286;SDS011;8251;53.568;10.018;2022-10-16T05:37:51;3.53;;;1.20;;
16286;SDS011;8251;53.568;10.018;2022-10-16T05:40:22;3.87;;;1.30;;
16286;SDS011;8251;53.568;10.018;2022-10-16T05:42:58;2.80;;;1.00;;
16286;SDS011;8251;53.568;10.018;2022-10-16T05:45:25;3.40;;;1.27;;
16286;SDS011;8251;53.568;10.018;2022-10-16T05:48:05;3.27;;;1.20;;
16286;SDS011;8251;53.568;10.018;2022-10-16T05:50:35;1.40;;;1.00;;
16286;SDS011;8251;53.568;10.018;2022-10-16T05:53:05;3.67;;;1.20;;
16286;SDS011;8251;53.568;10.018;2022-10-16T05:55:36;3.43;;;1.33;;
16286;SDS011;8251;53.568;10.018;2022-10-16T05:58:08;3.57;;;1.30;;
16286;SDS011;8251;53.568;10.018;2022-10-16T06:00:36;1.77;;;1.13;;
16286;SDS011;8251;53.568;10.018;2022-10-16T06:03:07;2.23;;;1.07;;
16286;SDS011;8251;53.568;10.018;2022-10-16T06:05:36;2.80;;;1.30;;
16286;SDS011;8251;53.568;10.018;2022-10-16T06:08:08;4.43;;;1.93;;
16286;SDS011;8251;53.568;10.018;2022-10-16T06:10:43;2.33;;;1.10;;
16286;SDS011;8251;53.568;10.018;2022-10-16T06:13:13;3.53;;;1.40;;
16286;SDS011;8251;53.568;10.018;2022-10-16T06:15:48;2.03;;;1.00;;
16286;SDS011;8251;53.568;10.018;2022-10-16T06:18:21;5.73;;;1.10;;
16286;SDS011;8251;53.568;10.018;2022-10-16T06:20:51;3.43;;;0.70;;
16286;SDS011;8251;53.568;10.018;2022-10-16T06:23:22;2.07;;;1.33;;
16286;SDS011;8251;53.568;10.018;2022-10-16T06:25:54;3.90;;;1.10;;
16286;SDS011;8251;53.568;10.018;2022-10-16T06:28:31;2.83;;;1.23;;
16286;SDS011;8251;53.568;10.018;2022-10-16T06:31:05;3.10;;;1.53;;
16286;SDS011;8251;53.568;10.018;2022-10-16T06:33:38;4.33;;;1.73;;
16286;SDS011;8251;53.568;10.018;2022-10-16T06:36:11;2.63;;;0.97;;
16286;SDS011;8251;53.568;10.018;2022-10-16T06:38:41;4.77;;;1.37;;
16286;SDS011;8251;53.568;10.018;2022-10-16T06:41:14;3.90;;;1.20;;
16286;SDS011;8251;53.568;10.018;2022-10-16T06:43:45;4.97;;;1.50;;
16286;SDS011;8251;53.568;10.018;2022-10-16T06:46:19;5.00;;;1.43;;
16286;SDS011;8251;53.568;10.018;2022-10-16T06:48:51;6.20;;;2.67;;
16286;SDS011;8251;53.568;10.018;2022-10-16T06:51:21;4.83;;;1.80;;
16286;SDS011;8251;53.568;10.018;2022-10-16T06:53:50;3.20;;;1.33;;
16286;SDS011;8251;53.568;10.018;2022-10-16T06:56:27;4.20;;;1.40;;
16286;SDS011;8251;53.568;10.018;2022-10-16T06:58:56;6.70;;;1.70;;
16286;SDS011;8251;53.568;10.018;2022-10-16T07:01:28;2.77;;;1.70;;
16286;SDS011;8251;53.568;10.018;2022-10-16T07:04:03;2.23;;;1.30;;
16286;SDS011;8251;53.568;10.018;2022-10-16T07:06:35;2.93;;;1.50;;
16286;SDS011;8251;53.568;10.018;2022-10-16T07:09:05;2.27;;;1.57;;
16286;SDS011;8251;53.568;10.018;2022-10-16T07:11:38;4.40;;;1.53;;
16286;SDS011;8251;53.568;10.018;2022-10-16T07:14:15;3.33;;;2.43;;
16286;SDS011;8251;53.568;10.018;2022-10-16T07:16:46;4.67;;;1.80;;
16286;SDS011;8251;53.568;10.018;2022-10-16T07:19:24;1.67;;;1.50;;
16286;SDS011;8251;53.568;10.018;2022-10-16T07:22:03;3.10;;;1.50;;
16286;SDS011;8251;53.568;10.018;2022-10-16T07:24:33;2.17;;;1.30;;
16286;SDS011;8251;53.568;10.018;2022-10-16T07:27:04;2.63;;;1.53;;
16286;SDS011;8251;53.568;10.018;2022-10-16T07:29:32;3.27;;;1.80;;
16286;SDS011;8251;53.568;10.018;2022-10-16T07:32:12;3.57;;;1.83;;
16286;SDS011;8251;53.568;10.018;2022-10-16T07:34:54;2.50;;;1.73;;
16286;SDS011;8251;53.568;10.018;2022-10-16T07:37:23;3.77;;;1.90;;
16286;SDS011;8251;53.568;10.018;2022-10-16T07:39:51;4.50;;;1.70;;
16286;SDS011;8251;53.568;10.018;2022-10-16T07:42:27;3.17;;;1.67;;
16286;SDS011;8251;53.568;10.018;2022-10-16T07:44:56;2.10;;;1.37;;
16286;SDS011;8251;53.568;10.018;2022-10-16T07:47:23;3.17;;;1.53;;
16286;SDS011;8251;53.568;10.018;2022-10-16T07:49:54;2.63;;;1.83;;
16286;SDS011;8251;53.568;10.018;2022-10-16T07:52:22;3.80;;;1.67;;
16286;SDS011;8251;53.568;10.018;2022-10-16T07:54:51;5.67;;;1.70;;
16286;SDS011;8251;53.568;10.018;2022-10-16T07:57:20;2.00;;;1.80;;
16286;SDS011;8251;53.568;10.018;2022-10-16T07:59:56;2.53;;;1.47;;
16286;SDS011;8251;53.568;10.018;2022-10-16T08:02:24;5.03;;;1.57;;
16286;SDS011;8251;53.568;10.018;2022-10-16T08:04:55;5.13;;;2.10;;
16286;SDS011;8251;53.568;10.018;2022-10-16T08:07:24;8.13;;;2.43;;
16286;SDS011;8251;53.568;10.018;2022-10-16T08:09:52;2.97;;;1.57;;
16286;SDS011;8251;53.568;10.018;2022-10-16T08:12:21;1.27;;;1.07;;
16286;SDS011;8251;53.568;10.018;2022-10-16T08:14:48;3.40;;;1.60;;
16286;SDS011;8251;53.568;10.018;2022-10-16T08:17:20;2.43;;;1.57;;
16286;SDS011;8251;53.568;10.018;2022-10-16T08:19:49;3.17;;;1.20;;
16286;SDS011;8251;53.568;10.018;2022-10-16T08:22:18;5.07;;;1.80;;
16286;SDS011;8251;53.568;10.018;2022-10-16T08:24:48;2.33;;;1.40;;
16286;SDS011;8251;53.568;10.018;2022-10-16T08:27:18;2.07;;;1.63;;
16286;SDS011;8251;53.568;10.018;2022-10-16T08:29:46;2.50;;;1.40;;
16286;SDS011;8251;53.568;10.018;2022-10-16T08:32:15;9.63;;;1.80;;
16286;SDS011;8251;53.568;10.018;2022-10-16T08:34:45;6.70;;;1.90;;
16286;SDS011;8251;53.568;10.018;2022-10-16T08:37:13;8.73;;;2.10;;
16286;SDS011;8251;53.568;10.018;2022-10-16T08:39:50;5.17;;;1.60;;
16286;SDS011;8251;53.568;10.018;2022-10-16T08:42:26;7.60;;;1.73;;
16286;SDS011;8251;53.568;10.018;2022-10-16T08:45:21;1.70;;;1.20;;
16286;SDS011;8251;53.568;10.018;2022-10-16T08:48:00;2.03;;;1.50;;
16286;SDS011;8251;53.568;10.018;2022-10-16T08:50:46;5.83;;;1.60;;
16286;SDS011;8251;53.568;10.018;2022-10-16T08:53:18;3.77;;;1.80;;
16286;SDS011;8251;53.568;10.018;2022-10-16T08:55:59;6.93;;;1.43;;
16286;SDS011;8251;53.568;10.018;2022-10-16T08:58:29;2.53;;;1.47;;
16286;SDS011;8251;53.568;10.018;2022-10-16T09:01:00;7.70;;;1.53;;
16286;SDS011;8251;53.568;10.018;2022-10-16T09:03:33;5.37;;;2.53;;
16286;SDS011;8251;53.568;10.018;2022-10-16T09:06:21;2.43;;;1.57;;
16286;SDS011;8251;53.568;10.018;2022-10-16T09:09:04;7.40;;;1.70;;
16286;SDS011;8251;53.568;10.018;2022-10-16T09:11:55;4.73;;;1.43;;
16286;SDS011;8251;53.568;10.018;2022-10-16T09:17:38;4.33;;;1.17;;
16286;SDS011;8251;53.568;10.018;2022-10-16T09:20:18;3.57;;;1.97;;
16286;SDS011;8251;53.568;10.018;2022-10-16T09:22:55;2.27;;;1.63;;
16286;SDS011;8251;53.568;10.018;2022-10-16T09:25:36;3.27;;;1.27;;
16286;SDS011;8251;53.568;10.018;2022-10-16T09:28:08;1.40;;;1.30;;
16286;SDS011;8251;53.568;10.018;2022-10-16T09:30:36;3.30;;;1.10;;
16286;SDS011;8251;53.568;10.018;2022-10-16T09:33:07;2.20;;;1.03;;
16286;SDS011;8251;53.568;10.018;2022-10-16T09:35:36;3.93;;;1.43;;
16286;SDS011;8251;53.568;10.018;2022-10-16T09:38:05;2.33;;;1.40;;
16286;SDS011;8251;53.568;10.018;2022-10-16T09:40:34;2.97;;;1.10;;
16286;SDS011;8251;53.568;10.018;2022-10-16T09:43:19;6.20;;;1.50;;
16286;SDS011;8251;53.568;10.018;2022-10-16T09:45:57;3.73;;;1.07;;
16286;SDS011;8251;53.568;10.018;2022-10-16T09:48:26;2.33;;;1.10;;
16286;SDS011;8251;53.568;10.018;2022-10-16T09:50:58;2.07;;;0.97;;
16286;SDS011;8251;53.568;10.018;2022-10-16T09:53:43;4.87;;;1.10;;
16286;SDS011;8251;53.568;10.018;2022-10-16T09:56:21;2.27;;;1.00;;
16286;SDS011;8251;53.568;10.018;2022-10-16T09:58:54;2.33;;;1.10;;
16286;SDS011;8251;53.568;10.018;2022-10-16T10:01:28;1.90;;;1.30;;
16286;SDS011;8251;53.568;10.018;2022-10-16T10:03:59;3.23;;;1.17;;
16286;SDS011;8251;53.568;10.018;2022-10-16T10:06:30;3.23;;;1.73;;
16286;SDS011;8251;53.568;10.018;2022-10-16T10:09:04;2.13;;;1.10;;
16286;SDS011;8251;53.568;10.018;2022-10-16T10:11:43;4.27;;;1.33;;
16286;SDS011;8251;53.568;10.018;2022-10-16T10:14:21;1.70;;;1.17;;
16286;SDS011;8251;53.568;10.018;2022-10-16T10:16:50;8.17;;;1.40;;
16286;SDS011;8251;53.568;10.018;2022-10-16T10:19:21;1.80;;;1.10;;
16286;SDS011;8251;53.568;10.018;2022-10-16T10:21:52;2.60;;;1.27;;
16286;SDS011;8251;53.568;10.018;2022-10-16T10:24:20;3.33;;;1.30;;
16286;SDS011;8251;53.568;10.018;2022-10-16T10:26:59;5.33;;;1.20;;
16286;SDS011;8251;53.568;10.018;2022-10-16T10:29:40;7.60;;;1.03;;
16286;SDS011;8251;53.568;10.018;2022-10-16T10:32:21;2.63;;;0.90;;
16286;SDS011;8251;53.568;10.018;2022-10-16T10:35:11;4.03;;;1.17;;
16286;SDS011;8251;53.568;10.018;2022-10-16T10:37:53;5.57;;;2.07;;
16286;SDS011;8251;53.568;10.018;2022-10-16T10:40:38;1.77;;;0.73;;
16286;SDS011;8251;53.568;10.018;2022-10-16T10:43:14;13.63;;;1.30;;
16286;SDS011;8251;53.568;10.018;2022-10-16T10:46:01;2.80;;;1.07;;
16286;SDS011;8251;53.568;10.018;2022-10-16T10:51:25;1.47;;;0.70;;
16286;SDS011;8251;53.568;10.018;2022-10-16T10:54:01;3.30;;;1.00;;
16286;SDS011;8251;53.568;10.018;2022-10-16T10:56:41;3.17;;;1.13;;
16286;SDS011;8251;53.568;10.018;2022-10-16T10:59:23;2.40;;;1.00;;
16286;SDS011;8251;53.568;10.018;2022-10-16T11:02:15;2.00;;;0.70;;
16286;SDS011;8251;53.568;10.018;2022-10-16T11:04:58;1.27;;;0.70;;
16286;SDS011;8251;53.568;10.018;2022-10-16T11:07:51;6.23;;;1.10;;
16286;SDS011;8251;53.568;10.018;2022-10-16T11:10:24;3.70;;;0.90;;
16286;SDS011;8251;53.568;10.018;2022-10-16T11:12:58;3.27;;;0.80;;
16286;SDS011;8251;53.568;10.018;2022-10-16T11:15:31;1.30;;;0.70;;
16286;SDS011;8251;53.568;10.018;2022-10-16T11:18:05;6.10;;;0.90;;
16286;SDS011;8251;53.568;10.018;2022-10-16T11:20:34;9.63;;;0.90;;
16286;SDS011;8251;53.568;10.018;2022-10-16T11:23:08;2.40;;;0.80;;
16286;SDS011;8251;53.568;10.018;2022-10-16T11:25:44;2.87;;;0.60;;
16286;SDS011;8251;53.568;10.018;2022-10-16T11:28:14;7.20;;;1.00;;
16286;SDS011;8251;53.568;10.018;2022-10-16T11:30:47;1.93;;;0.70;;
16286;SDS011;8251;53.568;10.018;2022-10-16T11:33:24;7.53;;;1.10;;
16286;SDS011;8251;53.568;10.018;2022-10-16T11:36:00;1.13;;;0.70;;
16286;SDS011;8251;53.568;10.018;2022-10-16T11:38:41;4.53;;;0.90;;
16286;SDS011;8251;53.568;10.018;2022-10-16T11:41:17;3.03;;;1.10;;
16286;SDS011;8251;53.568;10.018;2022-10-16T11:43:50;3.87;;;0.90;;
16286;SDS011;8251;53.568;10.018;2022-10-16T11:46:26;4.33;;;0.83;;
16286;SDS011;8251;53.568;10.018;2022-10-16T11:49:00;2.97;;;0.87;;
16286;SDS011;8251;53.568;10.018;2022-10-16T11:51:36;4.00;;;0.97;;
16286;SDS011;8251;53.568;10.018;2022-10-16T11:54:14;5.47;;;1.10;;
16286;SDS011;8251;53.568;10.018;2022-10-16T11:56:48;4.27;;;1.10;;
16286;SDS011;8251;53.568;10.018;2022-10-16T11:59:20;2.23;;;0.67;;
16286;SDS011;8251;53.568;10.018;2022-10-16T12:01:56;9.90;;;1.93;;
16286;SDS011;8251;53.568;10.018;2022-10-16T12:04:41;3.60;;;0.80;;
16286;SDS011;8251;53.568;10.018;2022-10-16T12:07:15;8.97;;;1.30;;
16286;SDS011;8251;53.568;10.018;2022-10-16T12:09:48;0.80;;;0.50;;
16286;SDS011;8251;53.568;10.018;2022-10-16T12:12:25;3.27;;;1.13;;
16286;SDS011;8251;53.568;10.018;2022-10-16T12:15:00;1.03;;;0.90;;
16286;SDS011;8251;53.568;10.018;2022-10-16T12:17:34;3.13;;;1.00;;
16286;SDS011;8251;53.568;10.018;2022-10-16T12:20:24;4.40;;;1.30;;
16286;SDS011;8251;53.568;10.018;2022-10-16T12:22:56;3.87;;;1.00;;
16286;SDS011;8251;53.568;10.018;2022-10-16T12:25:26;6.17;;;1.10;;
16286;SDS011;8251;53.568;10.018;2022-10-16T12:27:58;6.73;;;0.80;;
16286;SDS011;8251;53.568;10.018;2022-10-16T12:30:27;2.70;;;1.00;;
16286;SDS011;8251;53.568;10.018;2022-10-16T12:32:57;4.87;;;1.00;;
16286;SDS011;8251;53.568;10.018;2022-10-16T12:35:29;1.90;;;0.60;;
16286;SDS011;8251;53.568;10.018;2022-10-16T12:38:06;3.23;;;1.13;;
16286;SDS011;8251;53.568;10.018;2022-10-16T12:40:40;4.40;;;0.80;;
16286;SDS011;8251;53.568;10.018;2022-10-16T12:43:11;1.17;;;0.70;;
16286;SDS011;8251;53.568;10.018;2022-10-16T12:46:00;2.03;;;0.77;;
16286;SDS011;8251;53.568;10.018;2022-10-16T12:48:34;4.80;;;0.90;;
16286;SDS011;8251;53.568;10.018;2022-10-16T12:51:20;1.60;;;0.80;;
16286;SDS011;8251;53.568;10.018;2022-10-16T12:53:57;3.63;;;2.10;;
16286;SDS011;8251;53.568;10.018;2022-10-16T12:56:27;3.57;;;2.23;;
16286;SDS011;8251;53.568;10.018;2022-10-16T12:59:09;1.40;;;0.80;;
16286;SDS011;8251;53.568;10.018;2022-10-16T13:01:54;3.13;;;1.13;;
16286;SDS011;8251;53.568;10.018;2022-10-16T13:07:38;4.00;;;1.47;;
16286;SDS011;8251;53.568;10.018;2022-10-16T13:10:18;6.33;;;1.40;;
16286;SDS011;8251;53.568;10.018;2022-10-16T13:15:48;3.80;;;0.80;;
16286;SDS011;8251;53.568;10.018;2022-10-16T13:18:25;4.17;;;1.10;;
16286;SDS011;8251;53.568;10.018;2022-10-16T13:21:02;4.67;;;1.00;;
16286;SDS011;8251;53.568;10.018;2022-10-16T13:23:46;3.90;;;0.73;;
16286;SDS011;8251;53.568;10.018;2022-10-16T13:26:23;3.83;;;1.20;;
16286;SDS011;8251;53.568;10.018;2022-10-16T13:28:59;8.93;;;0.90;;
16286;SDS011;8251;53.568;10.018;2022-10-16T13:31:27;9.03;;;1.20;;
16286;SDS011;8251;53.568;10.018;2022-10-16T13:34:00;3.00;;;1.20;;
16286;SDS011;8251;53.568;10.018;2022-10-16T13:36:34;6.67;;;1.10;;
16286;SDS011;8251;53.568;10.018;2022-10-16T13:39:13;2.07;;;0.90;;
16286;SDS011;8251;53.568;10.018;2022-10-16T13:41:43;2.27;;;0.90;;
16286;SDS011;8251;53.568;10.018;2022-10-16T13:44:14;5.73;;;1.03;;
16286;SDS011;8251;53.568;10.018;2022-10-16T13:46:44;5.03;;;1.57;;
16286;SDS011;8251;53.568;10.018;2022-10-16T13:49:12;1.20;;;0.57;;
16286;SDS011;8251;53.568;10.018;2022-10-16T13:51:47;5.27;;;1.37;;
16286;SDS011;8251;53.568;10.018;2022-10-16T13:54:28;2.87;;;0.83;;
16286;SDS011;8251;53.568;10.018;2022-10-16T13:57:04;5.17;;;1.00;;
16286;SDS011;8251;53.568;10.018;2022-10-16T13:59:33;4.03;;;1.00;;
16286;SDS011;8251;53.568;10.018;2022-10-16T14:02:05;8.07;;;1.10;;
16286;SDS011;8251;53.568;10.018;2022-10-16T14:04:42;3.70;;;1.00;;
16286;SDS011;8251;53.568;10.018;2022-10-16T14:07:12;4.27;;;0.83;;
16286;SDS011;8251;53.568;10.018;2022-10-16T14:09:49;5.40;;;1.77;;
16286;SDS011;8251;53.568;10.018;2022-10-16T14:12:19;4.10;;;1.63;;
16286;SDS011;8251;53.568;10.018;2022-10-16T14:14:48;3.53;;;0.80;;
16286;SDS011;8251;53.568;10.018;2022-10-16T14:17:18;4.77;;;0.97;;
16286;SDS011;8251;53.568;10.018;2022-10-16T14:19:49;4.50;;;1.10;;
16286;SDS011;8251;53.568;10.018;2022-10-16T14:22:23;5.20;;;1.10;;
16286;SDS011;8251;53.568;10.018;2022-10-16T14:24:59;2.80;;;0.90;;
16286;SDS011;8251;53.568;10.018;2022-10-16T14:27:35;3.57;;;1.20;;
16286;SDS011;8251;53.568;10.018;2022-10-16T14:30:12;3.17;;;1.20;;
16286;SDS011;8251;53.568;10.018;2022-10-16T14:32:57;2.00;;;0.97;;
16286;SDS011;8251;53.568;10.018;2022-10-16T14:35:28;4.27;;;0.97;;
16286;SDS011;8251;53.568;10.018;2022-10-16T14:38:01;4.33;;;2.20;;
16286;SDS011;8251;53.568;10.018;2022-10-16T14:40:34;1.60;;;1.17;;
16286;SDS011;8251;53.568;10.018;2022-10-16T14:43:03;3.77;;;0.90;;
16286;SDS011;8251;53.568;10.018;2022-10-16T14:45:32;5.33;;;1.10;;
16286;SDS011;8251;53.568;10.018;2022-10-16T14:48:03;5.63;;;1.30;;
16286;SDS011;8251;53.568;10.018;2022-10-16T14:50:47;5.67;;;1.67;;
16286;SDS011;8251;53.568;10.018;2022-10-16T14:53:16;5.47;;;1.57;;
16286;SDS011;8251;53.568;10.018;2022-10-16T14:55:53;2.37;;;1.00;;
16286;SDS011;8251;53.568;10.018;2022-10-16T14:58:23;4.30;;;1.10;;
16286;SDS011;8251;53.568;10.018;2022-10-16T15:00:51;4.33;;;1.47;;
16286;SDS011;8251;53.568;10.018;2022-10-16T15:03:22;2.63;;;1.10;;
16286;SDS011;8251;53.568;10.018;2022-10-16T15:05:49;3.90;;;0.73;;
16286;SDS011;8251;53.568;10.018;2022-10-16T15:08:16;6.87;;;1.67;;
16286;SDS011;8251;53.568;10.018;2022-10-16T15:10:45;5.87;;;2.03;;
16286;SDS011;8251;53.568;10.018;2022-10-16T15:13:13;3.60;;;1.23;;
16286;SDS011;8251;53.568;10.018;2022-10-16T15:15:43;6.73;;;1.43;;
16286;SDS011;8251;53.568;10.018;2022-10-16T15:18:11;8.97;;;1.37;;
16286;SDS011;8251;53.568;10.018;2022-10-16T15:20:39;3.43;;;1.10;;
16286;SDS011;8251;53.568;10.018;2022-10-16T15:23:12;3.00;;;1.47;;
16286;SDS011;8251;53.568;10.018;2022-10-16T15:25:44;3.70;;;1.67;;
16286;SDS011;8251;53.568;10.018;2022-10-16T15:28:16;6.23;;;1.47;;
16286;SDS011;8251;53.568;10.018;2022-10-16T15:30:44;9.87;;;1.27;;
16286;SDS011;8251;53.568;10.018;2022-10-16T15:33:16;4.93;;;1.47;;
16286;SDS011;8251;53.568;10.018;2022-10-16T15:35:46;7.40;;;1.47;;
16286;SDS011;8251;53.568;10.018;2022-10-16T15:38:14;5.40;;;1.33;;